• Join FlightAware (Why Join?)
  • Login
  • US Flag 
08:46PM EDT


 

Airport Tracker/Info


-or-


 

Live Flight TrackerFlight Track Log ✈ UAL4376 ✈ 10-May-2013 ✈ KMHT - KEWR

Flight Track Log - Related Links

Times and Time Zones

All times are in EDT time to prevent confusion due to time zone crossing. See the UAL4376 flight status page for this flight to view local times or setup timezone preferences in your user account.

Time Position Orientation Groundspeed Altitude Reporting Facility
EDT Latitude Longitude Course Direction KTS MPH feet Rate Location/Type
07:29AM 42.9500 -71.4167 276° West 154 177 1,000  Level KA90
07:30AM 42.9792 -71.3986 24° Northeast 195 224 2,200 1,920 Climbing Boston Center
07:31AM 43.0353 -71.3778 15° North 225 259 4,200 2,160 Climbing Boston Center
07:32AM 42.9601 -71.7310 280° West  Level FlightAware Approximate
07:32AM 43.0672 -71.4456 303° West 241 277 6,600  Level Boston Center
07:33AM 42.9706 -71.8318 280° West  Level FlightAware Approximate
07:33AM 43.0908 -71.5303 291° West 241 277 8,900  Level Boston Center
07:34AM 42.9832 -71.9324 280° West  Level FlightAware Approximate
07:34AM 43.1164 -71.6267 290° West 265 305 10,500  Level Boston Center
07:35AM 43.0036 -72.0292 276° West  Level FlightAware Approximate
07:35AM 43.1278 -71.7489 277° West 298 343 11,200  Level Boston Center
07:36AM 43.1325 -71.8797 273° West 342 394 13,000 1,620 Climbing Boston Center
07:37AM 43.1394 -72.0075 274° West 347 399 14,500 1,500 Climbing Boston Center
07:38AM 43.1439 -72.1383 273° West 347 399 16,100 1,380 Climbing Boston Center
07:39AM 43.1483 -72.2550 273° West 347 399 17,300 1,200 Climbing Boston Center
07:40AM 43.1569 -72.3917 275° West 347 399 18,500 1,200 Climbing Boston Center
07:41AM 43.1611 -72.5256 272° West 347 399 19,700 1,200 Climbing Boston Center
07:42AM 43.1672 -72.6622 274° West 352 405 21,000 1,140 Climbing Boston Center
07:43AM 43.1731 -72.8017 273° West 363 418 22,000 480 Climbing Boston Center
07:44AM 43.1786 -72.9525 273° West 375 432 22,000  Level Boston Center
07:45AM 43.1842 -73.1092 273° West 396 456 22,000  Level Boston Center
07:46AM 43.1561 -73.2597 256° West 409 471 22,000  Level Boston Center
07:47AM 43.0614 -73.3864 224° Southwest 400 460 22,000 -480 Level Boston Center
07:48AM 42.9747 -73.5014 224° Southwest 420 483 21,100 -1,620 Descending Boston Center
07:49AM 42.8925 -73.6106 224° Southwest 427 491 18,800 -2,400 Descending Boston Center
07:50AM 42.8164 -73.7194 226° Southwest 401 461 16,400 -1,440 Descending Boston Center
07:51AM 42.7297 -73.8108 218° Southwest 401 461 16,000 -240 Descending Boston Center
07:52AM 42.6269 -73.8622 200° South 395 455 16,000  Level Boston Center
07:53AM 42.5181 -73.9047 196° South 403 464 16,000  Level Boston Center
07:54AM 42.4217 -73.9503 199° South 410 472 16,000  Level Boston Center
07:55AM 42.2833 -74.0117 198° South 405 466 16,000  Level Boston Center
07:56AM 42.1764 -74.0594 198° South 410 472 16,000 -300 Level Boston Center
07:57AM 42.0714 -74.1069 199° South 410 472 15,500 -840 Descending Boston Center
07:58AM 41.9644 -74.1544 198° South 405 466 14,400 -1,080 Descending Boston Center
07:59AM 41.8742 -74.1939 198° South 398 458 13,400 -960 Descending Boston Center
08:00AM 41.7628 -74.2408 197° South 392 451 12,500 -840 Descending Boston Center
08:01AM 41.6831 -74.2747 198° South 361 415 11,800 -1,140 Descending Boston Center
08:02AM 41.5969 -74.3139 199° South 316 364 10,300 -1,380 Descending Boston Center
08:03AM 41.5258 -74.3422 197° South 301 346 9,100 -1,200 Descending Boston Center
08:05AM 41.3833 -74.4000 197° South 279 321 7,000 -780 Descending New York TRACON
08:06AM 41.3167 -74.4333 201° Southwest 275 316 7,000  Level New York TRACON
08:07AM 41.2333 -74.4000 163° South 285 328 7,100 -360 Climbing New York TRACON
08:08AM 41.1667 -74.3500 151° Southeast 283 326 6,300 -960 Descending New York TRACON
08:09AM 41.1000 -74.2833 143° Southeast 275 316 5,200 -780 Descending New York TRACON
08:10AM 41.0500 -74.2333 143° Southeast 270 311 4,800 -600 Descending New York TRACON
08:11AM 40.9833 -74.1833 150° Southeast 267 307 4,000 -420 Descending New York TRACON
08:12AM 40.9167 -74.1167 143° Southeast 270 311 4,000 -480 Level New York TRACON
08:13AM 40.8500 -74.0833 159° South 267 307 3,100 -900 Descending New York TRACON